Aérodrome :
LOGIN :

S'inscrire | Disclaimer

   EN    FR    IT 

 










Légende :    VFR   VFR Marginal   IFR   IFR Intensif   IFR Très Intensif
Visi : 
Plafond : 
>= 8 km
>= 3000ft
5 à 8 km
1000 à 3000 ft
1500m à 5 km
500 à 1000 ft
800 à 1500m
200 à 500 ft
< 800m
< 200 ft
Symboles :   Orages  Brouillard  Fortes neiges  Fortes précipitations  Vent > 20 kt
SIGMETs :   Divers  Orages  Givrage  Turbulence  Onde Orograph.  Cendres Volcan.






- Altitude de l'aérodrome : 117 ft
- Code IATA : NWI


EGSH - Norwich

DERNIER METAR :
  • 301950Z 20005KT 160V240 9999 FEW036 17/10 Q1012

METARs EXPIRÉS :
  • 301920Z 21007KT 180V250 9999 SCT036 17/10 Q1012 NOSIG
  • 301850Z 18005KT 140V230 9999 FEW035 18/11 Q1012 NOSIG
  • 301820Z 18005KT 130V230 9999 FEW035 17/11 Q1011
  • 301750Z 17005KT 100V220 9999 FEW035 17/10 Q1011 NOSIG
  • 301720Z 18005KT 110V230 9999 -RA SCT040 17/10 Q1011

TAF TAF EGSH
Valide du 30 à 18h jusqu'au 01 à 03h UTC


301652Z 3018/0103 19005KT 9999 SCT035
PROB30
TEMPO 3018/3020 7000 SHRA BKN014
ATIS : +44 1603 420 640



MET'MAP, la Météo Aéronautique d'un coup d'oeil ! - Copyright ORBIFLY Décembre 2007 - Disclaimer

ORBIFLY MET'MAP TEAM :

Programmation & Développement : Alexandra Zaïnal
Sur une idée originale de : Baudouin d'Aumeries
Soutien technique & logistique : Manuel Goepfert
Assistance : Marc-Olivier Méhu




SOURCES & CREDITS :

   NOAA